createdAt,value
2023-01-05T00:00:12.196Z,198.44727
2023-01-05T00:15:14.433Z,53.13615
2023-01-05T00:30:16.814Z,5.42206
2023-01-05T00:45:19.122Z,0
2023-01-05T01:00:21.422Z,0
2023-01-05T01:15:23.850Z,0
2023-01-05T01:30:26.170Z,0
2023-01-05T01:45:28.490Z,0
2023-01-05T02:00:30.772Z,0
2023-01-05T02:15:33.188Z,0
2023-01-05T02:30:35.480Z,0
2023-01-05T02:45:37.754Z,0
2023-01-05T03:00:40.220Z,0
2023-01-05T03:15:42.553Z,0
2023-01-05T03:30:44.987Z,0
2023-01-05T03:45:47.249Z,0
2023-01-05T04:00:49.438Z,0
2023-01-05T04:15:51.943Z,0
2023-01-05T04:30:54.406Z,0
2023-01-05T04:45:56.909Z,0
2023-01-05T05:00:59.218Z,0
2023-01-05T05:16:01.522Z,0
2023-01-05T05:31:03.849Z,0
2023-01-05T05:46:06.218Z,0
2023-01-05T06:01:08.511Z,0
2023-01-05T06:16:11.053Z,0
2023-01-05T06:31:13.380Z,0
2023-01-05T06:46:15.665Z,0
2023-01-05T07:01:18.162Z,0
2023-01-05T07:16:20.662Z,0
2023-01-05T07:31:23.164Z,0
2023-01-05T07:46:25.589Z,0
2023-01-05T08:01:28.259Z,0
2023-01-05T08:16:30.725Z,0
2023-01-05T08:31:33.084Z,0
2023-01-05T08:46:35.321Z,0
2023-01-05T09:01:37.625Z,0
2023-01-05T09:17:05.777Z,0
2023-01-05T09:32:09.197Z,0
2023-01-05T09:47:11.468Z,0
2023-01-05T10:02:13.708Z,0
2023-01-05T10:17:40.404Z,0
2023-01-05T10:32:50.102Z,0
2023-01-05T10:47:53.230Z,0
2023-01-05T11:02:55.696Z,0
2023-01-05T11:17:57.980Z,0
2023-01-05T11:33:00.221Z,0
2023-01-05T11:48:02.720Z,0
2023-01-05T12:03:05.112Z,0
2023-01-05T12:18:07.439Z,0
2023-01-05T12:48:42.158Z,0
2023-01-05T13:03:44.435Z,0
2023-01-05T13:18:46.999Z,0
2023-01-05T13:33:49.258Z,0
2023-01-05T13:49:03.228Z,0
2023-01-05T14:04:06.385Z,0
2023-01-05T14:19:08.829Z,0
2023-01-05T14:34:11.139Z,0
2023-01-05T14:49:13.424Z,0
2023-01-05T15:04:15.652Z,0
2023-01-05T15:19:17.900Z,2.16882
2023-01-05T15:34:20.184Z,32.53234
2023-01-05T15:49:22.451Z,147.47993
2023-01-05T16:04:24.735Z,360.02454
2023-01-05T16:19:27.071Z,871.86664
2023-01-05T16:34:29.331Z,1409.73462
2023-01-05T16:49:31.537Z,1833.7395
2023-01-05T17:04:33.845Z,2574.39233
2023-01-05T17:19:36.106Z,2310.88037
2023-01-05T17:34:39.648Z,2137.37451
2023-01-05T17:49:43.039Z,2951.76758
2023-01-05T18:04:45.314Z,6093.30713
2023-01-05T18:19:47.579Z,5185.65479
2023-01-05T18:34:49.789Z,3174.07178
2023-01-05T18:49:52.076Z,3824.71851
2023-01-05T19:04:54.487Z,3972.19849
2023-01-05T19:19:56.755Z,3912.55591
2023-01-05T19:34:58.972Z,3989.54907
2023-01-05T19:50:01.285Z,5186.73926
2023-01-05T20:05:03.515Z,3148.0459
2023-01-05T20:20:05.769Z,5033.83691
2023-01-05T20:35:08.009Z,3313.96094
2023-01-05T20:50:10.285Z,5007.81104
2023-01-05T21:05:12.546Z,5050.10303
2023-01-05T21:20:14.854Z,3878.93921
2023-01-05T21:35:17.107Z,5961.00879
2023-01-05T21:50:19.408Z,9115.56152
2023-01-05T22:05:21.597Z,5879.67773
2023-01-05T22:20:23.808Z,2267.50391
2023-01-05T22:35:26.114Z,4667.30615
2023-01-05T22:50:28.382Z,2627.52856
2023-01-05T23:05:30.723Z,2063.63452
2023-01-05T23:20:32.887Z,1484.55896
2023-01-05T23:35:35.072Z,1292.61829
2023-01-05T23:50:37.350Z,862.10693
